Time;durP1;ratioP1;P1;durP2;ratioP2;P2;SDS_P1;SDS_P2;PMS_P1;PMS_P2;Temp;Humidity;BMP_temperature;BMP_pressure;BME280_temperature;BME280_humidity;BME280_pressure;Samples;Min_cycle;Max_cycle;Signal;HPM_P1;HPM_P2
2023/05/29 00:00:32;;;;;;;4.53;2.12;;;;;;;14.99;52.26;100808.80;1702410;84;21216;-58
2023/05/29 00:03:40;;;;;;;3.95;1.55;;;;;;;15.00;52.31;100812.38;1700096;84;21358;-57
2023/05/29 00:06:46;;;;;;;5.25;1.92;;;;;;;15.00;52.27;100802.22;1700057;84;21374;-58
2023/05/29 00:09:52;;;;;;;3.98;1.47;;;;;;;14.99;52.30;100810.69;1702361;84;21227;-58
2023/05/29 00:13:00;;;;;;;5.45;1.80;;;;;;;15.00;52.32;100812.38;1702153;84;21208;-58
2023/05/29 00:16:07;;;;;;;5.47;1.98;;;;;;;15.00;52.29;100809.63;1699583;84;21282;-59
2023/05/29 00:19:19;;;;;;;3.33;1.60;;;;;;;14.99;52.32;100812.94;1699119;84;21197;-58
2023/05/29 00:22:23;;;;;;;5.80;1.82;;;;;;;14.99;52.31;100812.94;1699628;83;21220;-59
2023/05/29 00:25:31;;;;;;;2.52;1.50;;;;;;;15.01;52.31;100811.36;1699552;84;21744;-58
2023/05/29 00:28:37;;;;;;;6.12;1.52;;;;;;;14.98;52.19;100801.55;1702024;83;21215;-59
2023/05/29 00:31:43;;;;;;;5.62;1.60;;;;;;;14.96;52.16;100814.70;1702015;84;21235;-59
2023/05/29 00:34:48;;;;;;;5.28;2.10;;;;;;;14.94;52.17;100811.79;1701183;83;21871;-59
2023/05/29 00:37:56;;;;;;;4.92;1.62;;;;;;;14.92;52.15;100816.66;1693920;84;21348;-59
2023/05/29 00:41:02;;;;;;;3.92;1.70;;;;;;;14.89;52.13;100817.02;1710628;83;21391;-57
2023/05/29 00:44:10;;;;;;;3.47;1.70;;;;;;;14.88;52.17;100818.08;1714591;83;21352;-58
2023/05/29 00:47:16;;;;;;;3.83;2.08;;;;;;;14.87;52.17;100807.56;1714508;83;21374;-58
2023/05/29 00:50:21;;;;;;;8.43;1.80;;;;;;;14.87;52.17;100812.25;1714455;83;21367;-59
2023/05/29 00:53:26;;;;;;;5.97;1.37;;;;;;;14.86;52.10;100816.90;1714526;83;21363;-59
2023/05/29 00:56:32;;;;;;;3.12;1.87;;;;;;;14.83;52.07;100812.29;1714514;83;21884;-59
2023/05/29 00:59:39;;;;;;;3.55;1.70;;;;;;;14.83;52.12;100821.42;1714562;83;21359;-58
2023/05/29 01:02:46;;;;;;;4.60;1.70;;;;;;;14.83;52.13;100817.80;1714480;83;21923;-59
2023/05/29 01:05:52;;;;;;;4.85;1.65;;;;;;;14.83;52.16;100812.29;1714519;83;21410;-60
2023/05/29 01:08:58;;;;;;;2.85;1.50;;;;;;;14.83;52.10;100815.05;1714432;83;21252;-59
2023/05/29 01:12:37;;;;;;;4.05;1.52;;;;;;;14.81;52.08;100812.99;1714653;83;21896;-59
2023/05/29 01:16:11;;;;;;;3.27;1.62;;;;;;;14.79;52.02;100819.25;1714530;83;21955;-58
2023/05/29 01:19:36;;;;;;;3.92;1.65;;;;;;;14.74;51.98;100814.83;1705579;83;21828;-58
2023/05/29 01:22:56;;;;;;;7.08;1.60;;;;;;;14.71;52.02;100813.84;1714513;83;21343;-58
2023/05/29 01:26:12;;;;;;;4.65;1.65;;;;;;;14.69;52.03;100817.30;1714512;83;21378;-59
2023/05/29 01:29:19;;;;;;;3.00;1.60;;;;;;;14.63;51.98;100807.92;1714478;83;21342;-59
2023/05/29 01:32:26;;;;;;;3.75;1.80;;;;;;;14.59;51.96;100823.62;1714484;83;21908;-58
2023/05/29 01:35:32;;;;;;;3.33;1.82;;;;;;;14.55;51.94;100818.17;1713340;82;21363;-58
2023/05/29 01:38:38;;;;;;;8.23;1.65;;;;;;;14.52;52.00;100821.31;1714416;83;21848;-58
2023/05/29 01:41:44;;;;;;;4.03;1.60;;;;;;;14.51;52.05;100818.20;1714526;83;21414;-58
2023/05/29 01:44:50;;;;;;;5.95;1.55;;;;;;;14.47;52.01;100817.75;1714533;83;21355;-58
2023/05/29 01:47:56;;;;;;;7.42;1.98;;;;;;;14.43;51.95;100819.71;1714482;83;21205;-58
2023/05/29 01:51:03;;;;;;;5.55;1.75;;;;;;;14.39;51.98;100820.61;1714491;83;21240;-57
2023/05/29 01:54:10;;;;;;;4.95;2.02;;;;;;;14.35;51.98;100815.67;1714459;83;21899;-57
2023/05/29 01:57:15;;;;;;;7.58;1.67;;;;;;;14.30;51.98;100816.21;1693488;83;21232;-58
2023/05/29 02:00:20;;;;;;;5.25;2.33;;;;;;;14.26;52.01;100814.89;1714455;83;21395;-58
2023/05/29 02:03:31;;;;;;;2.58;1.30;;;;;;;14.21;51.98;100814.56;1693088;83;21879;-58
2023/05/29 02:06:35;;;;;;;7.10;1.90;;;;;;;14.19;52.05;100822.70;1713907;83;21387;-59
2023/05/29 02:09:41;;;;;;;3.80;1.90;;;;;;;14.17;52.04;100827.02;1714436;83;21560;-58
2023/05/29 02:12:47;;;;;;;5.70;2.10;;;;;;;14.15;52.11;100825.47;1714070;83;21336;-58
2023/05/29 02:15:54;;;;;;;4.60;1.72;;;;;;;14.14;52.14;100824.64;1714282;83;21391;-57
2023/05/29 02:19:01;;;;;;;4.83;1.90;;;;;;;14.16;52.22;100827.20;1714516;83;21216;-58
2023/05/29 02:22:07;;;;;;;3.12;1.52;;;;;;;14.16;52.20;100823.08;1714151;83;21797;-57
2023/05/29 02:25:14;;;;;;;4.95;1.60;;;;;;;14.15;52.20;100826.34;1714371;83;21323;-58
2023/05/29 02:28:20;;;;;;;3.72;1.57;;;;;;;14.15;52.22;100827.72;1713847;83;21880;-59
2023/05/29 02:31:27;;;;;;;4.08;1.52;;;;;;;14.17;52.30;100826.16;1714209;83;21272;-59
2023/05/29 02:34:33;;;;;;;4.45;1.55;;;;;;;14.17;52.25;100826.16;1714409;83;21406;-58
2023/05/29 02:37:38;;;;;;;4.70;1.80;;;;;;;14.18;52.31;100825.96;1712596;83;21944;-58
2023/05/29 02:40:45;;;;;;;4.65;1.60;;;;;;;14.20;52.38;100818.89;1714250;83;21367;-58
2023/05/29 02:43:52;;;;;;;5.60;1.70;;;;;;;14.23;52.37;100821.26;1714017;83;21403;-58
2023/05/29 02:46:58;;;;;;;3.05;1.42;;;;;;;14.26;52.42;100809.90;1714354;83;21410;-58
2023/05/29 02:50:06;;;;;;;5.25;1.75;;;;;;;14.29;52.40;100817.27;1688201;83;21212;-59
2023/05/29 02:53:11;;;;;;;5.83;1.67;;;;;;;14.33;52.47;100820.50;1713670;83;21939;-58
2023/05/29 02:56:17;;;;;;;2.87;1.42;;;;;;;14.36;52.45;100810.48;1714481;83;21916;-58
2023/05/29 02:59:22;;;;;;;4.45;1.70;;;;;;;14.41;52.49;100822.63;1714353;83;21355;-58
2023/05/29 03:02:29;;;;;;;4.25;1.70;;;;;;;14.44;52.51;100817.27;1709691;83;21198;-58
2023/05/29 03:05:36;;;;;;;2.87;1.42;;;;;;;14.52;52.55;100817.18;1653796;86;21240;-57
2023/05/29 03:08:44;;;;;;;5.47;1.55;;;;;;;14.58;52.53;100821.41;1661304;86;21562;-60
2023/05/29 03:11:51;;;;;;;6.28;1.50;;;;;;;14.67;52.53;100823.52;1684874;84;21385;-61
2023/05/29 03:14:59;;;;;;;2.67;1.30;;;;;;;14.72;52.50;100812.78;1719603;83;21367;-62
2023/05/29 03:18:05;;;;;;;4.47;1.62;;;;;;;14.78;52.48;100813.38;1719554;83;21392;-61
2023/05/29 03:21:11;;;;;;;3.02;1.70;;;;;;;14.82;52.44;100816.97;1703897;83;21871;-59
2023/05/29 03:24:17;;;;;;;5.67;1.90;;;;;;;14.86;52.42;100826.55;1657525;86;21415;-60
2023/05/29 03:27:23;;;;;;;2.77;1.50;;;;;;;14.92;52.47;100827.15;1692579;84;21227;-61
2023/05/29 03:30:32;;;;;;;4.78;1.80;;;;;;;15.00;52.50;100829.80;1717081;83;21244;-60
2023/05/29 03:33:41;;;;;;;5.83;1.50;;;;;;;15.09;52.45;100836.58;1714228;83;21213;-60
2023/05/29 03:36:56;;;;;;;6.97;1.62;;;;;;;15.14;52.42;100837.72;1714418;83;21407;-60
2023/05/29 03:40:04;;;;;;;3.05;1.42;;;;;;;15.24;52.44;100830.52;1714448;83;21423;-61
2023/05/29 03:43:11;;;;;;;3.22;1.98;;;;;;;15.30;52.36;100832.48;1663497;86;21236;-60
2023/05/29 03:46:17;;;;;;;6.33;1.52;;;;;;;15.33;52.32;100830.71;1714336;83;21375;-60
2023/05/29 03:49:24;;;;;;;7.03;1.95;;;;;;;15.39;52.28;100838.23;1714362;83;21766;-61
2023/05/29 03:52:30;;;;;;;5.30;1.70;;;;;;;15.43;52.29;100833.50;1713936;83;21790;-61
2023/05/29 03:55:37;;;;;;;9.30;2.37;;;;;;;15.53;52.28;100835.42;1714443;83;21900;-61
2023/05/29 03:58:42;;;;;;;5.47;1.62;;;;;;;15.61;52.30;100835.29;1680336;83;21256;-61
2023/05/29 04:01:48;;;;;;;5.33;1.57;;;;;;;15.68;52.29;100837.58;1714275;83;21927;-62
2023/05/29 04:04:56;;;;;;;2.98;1.30;;;;;;;15.79;52.21;100843.11;1714244;83;21382;-60
2023/05/29 04:08:04;;;;;;;2.75;1.85;;;;;;;15.86;52.09;100846.77;1714240;83;21371;-60
2023/05/29 04:11:11;;;;;;;6.53;1.37;;;;;;;15.93;52.02;100841.66;1714360;83;21853;-60
2023/05/29 04:14:17;;;;;;;5.25;1.67;;;;;;;15.98;51.99;100841.88;1714538;83;21363;-60
2023/05/29 04:17:22;;;;;;;5.30;1.70;;;;;;;16.05;51.98;100855.75;1714487;83;21924;-59
2023/05/29 04:20:28;;;;;;;6.65;2.02;;;;;;;16.14;51.98;100854.02;1714423;83;21438;-61
2023/05/29 04:23:35;;;;;;;5.45;1.35;;;;;;;16.24;51.90;100862.83;1714235;83;21360;-59
2023/05/29 04:26:42;;;;;;;4.80;1.45;;;;;;;16.31;51.84;100863.75;1714379;83;21454;-60
2023/05/29 04:29:53;;;;;;;6.75;1.12;;;;;;;16.40;51.79;100861.14;1714474;83;21387;-60
2023/05/29 04:33:02;;;;;;;6.00;1.80;;;;;;;16.52;51.68;100867.53;1695892;84;21240;-61
2023/05/29 04:36:11;;;;;;;4.45;1.60;;;;;;;16.60;51.59;100865.47;1646613;86;21912;-61
2023/05/29 04:39:22;;;;;;;9.65;1.80;;;;;;;16.70;51.54;100867.87;1659990;83;21242;-60
2023/05/29 04:42:27;;;;;;;5.97;1.75;;;;;;;16.78;51.42;100875.97;1642477;87;21202;-60
2023/05/29 04:45:33;;;;;;;3.45;1.30;;;;;;;16.87;51.37;100878.91;1658443;85;21448;-60
2023/05/29 04:48:43;;;;;;;7.25;1.60;;;;;;;16.95;51.25;100874.59;1670412;85;21243;-60
2023/05/29 04:51:52;;;;;;;7.45;1.62;;;;;;;17.01;51.13;100871.00;1680878;84;21771;-61
2023/05/29 04:54:59;;;;;;;13.83;3.50;;;;;;;17.09;51.08;100876.36;1622620;86;21235;-62
2023/05/29 04:58:08;;;;;;;7.47;1.90;;;;;;;17.18;50.99;100868.20;1635648;87;21275;-58
2023/05/29 05:01:17;;;;;;;4.85;2.25;;;;;;;17.27;50.89;100861.41;1657690;85;21572;-59
2023/05/29 05:04:22;;;;;;;11.93;2.40;;;;;;;17.36;50.79;100859.64;1675214;84;22077;-58
2023/05/29 05:07:28;;;;;;;7.00;1.87;;;;;;;17.46;50.76;100859.27;1676007;84;21206;-58
2023/05/29 05:10:34;;;;;;;6.37;1.70;;;;;;;17.55;50.64;100861.64;1665433;85;21248;-58
2023/05/29 05:13:48;;;;;;;4.60;1.52;;;;;;;17.60;50.47;100860.48;1672390;84;21241;-56
2023/05/29 05:16:57;;;;;;;4.75;2.00;;;;;;;17.65;50.41;100859.85;1672407;84;21484;-56
2023/05/29 05:20:05;;;;;;;7.80;2.37;;;;;;;17.70;50.30;100860.94;1677357;84;22032;-56
2023/05/29 05:23:17;;;;;;;8.43;1.75;;;;;;;17.77;50.30;100858.19;1645624;86;21439;-57
2023/05/29 05:26:24;;;;;;;4.78;1.85;;;;;;;17.85;50.21;100856.61;1649315;85;21376;-56
2023/05/29 05:29:31;;;;;;;3.12;1.90;;;;;;;17.91;50.10;100862.67;1645255;86;21257;-57
2023/05/29 05:32:38;;;;;;;4.70;1.67;;;;;;;17.92;49.96;100867.70;1649431;87;21470;-56
2023/05/29 05:35:46;;;;;;;4.10;2.12;;;;;;;17.97;49.93;100867.36;1646271;85;21454;-56
2023/05/29 05:38:52;;;;;;;4.83;1.65;;;;;;;18.05;49.89;100869.93;1629297;87;21431;-57
2023/05/29 05:41:58;;;;;;;4.87;1.42;;;;;;;18.10;49.78;100859.06;1629196;85;21901;-57
2023/05/29 05:45:06;;;;;;;6.17;1.80;;;;;;;18.17;49.71;100868.77;1654360;86;21235;-57
2023/05/29 05:48:13;;;;;;;3.58;1.60;;;;;;;18.24;49.65;100870.47;1706711;83;21402;-57
2023/05/29 05:51:20;;;;;;;5.03;1.67;;;;;;;18.32;49.57;100862.45;1702422;84;21249;-57
2023/05/29 05:54:25;;;;;;;5.08;1.67;;;;;;;18.42;49.53;100867.08;1704949;84;21865;-56
2023/05/29 05:57:32;;;;;;;3.25;1.35;;;;;;;18.49;49.46;100868.77;1706758;84;21359;-57
2023/05/29 06:00:39;;;;;;;4.87;1.77;;;;;;;18.61;49.40;100855.97;1706808;82;21226;-57
2023/05/29 06:03:54;;;;;;;6.87;1.62;;;;;;;18.71;49.27;100858.30;1723836;82;21925;-56
2023/05/29 06:07:01;;;;;;;5.58;2.17;;;;;;;18.79;49.15;100855.28;1721355;82;21368;-56
2023/05/29 06:10:06;;;;;;;5.87;2.02;;;;;;;18.88;49.13;100859.52;1701062;84;21285;-59
2023/05/29 06:13:22;;;;;;;7.47;1.45;;;;;;;18.99;49.09;100853.30;1705684;83;21300;-58
2023/05/29 06:16:29;;;;;;;5.70;1.65;;;;;;;19.10;48.98;100845.67;1704641;83;21227;-58
2023/05/29 06:19:35;;;;;;;4.25;1.85;;;;;;;19.20;48.87;100849.67;1674281;83;21229;-57
2023/05/29 06:22:41;;;;;;;3.55;1.60;;;;;;;19.28;48.73;100841.69;1632700;85;21752;-57
2023/05/29 06:25:49;;;;;;;5.90;1.57;;;;;;;19.37;48.66;100844.52;1672036;85;21232;-56
2023/05/29 06:28:55;;;;;;;9.55;2.15;;;;;;;19.45;48.55;100853.11;1706897;84;21204;-56
2023/05/29 06:32:00;;;;;;;6.90;1.60;;;;;;;19.54;48.49;100847.08;1708703;83;21373;-57
2023/05/29 06:35:06;;;;;;;5.90;1.67;;;;;;;19.58;48.32;100845.57;1697953;83;21387;-56
2023/05/29 06:38:13;;;;;;;4.42;1.67;;;;;;;19.62;48.25;100845.42;1690029;85;21454;-57
2023/05/29 06:41:21;;;;;;;8.20;1.87;;;;;;;19.68;48.17;100840.36;1688784;82;21382;-58
2023/05/29 06:44:28;;;;;;;4.70;1.98;;;;;;;19.73;48.07;100845.23;1681783;84;21399;-57
2023/05/29 06:47:36;;;;;;;6.03;1.80;;;;;;;19.81;48.02;100844.97;1661373;84;21237;-57
2023/05/29 06:50:43;;;;;;;4.28;1.50;;;;;;;19.90;47.96;100842.25;1636588;85;21269;-56
2023/05/29 06:54:08;;;;;;;6.42;2.35;;;;;;;20.00;47.85;100841.19;1640355;87;21386;-55
2023/05/29 06:57:14;;;;;;;2.90;1.50;;;;;;;20.10;47.75;100841.02;1643479;87;21403;-54
2023/05/29 07:00:22;;;;;;;6.65;1.87;;;;;;;20.20;47.76;100838.59;1647057;85;21372;-51
2023/05/29 07:03:38;;;;;;;6.62;1.67;;;;;;;20.32;47.67;100841.49;1653868;84;21570;-53
2023/05/29 07:06:46;;;;;;;7.30;2.42;;;;;;;20.42;47.53;100830.15;1643883;86;21271;-52
2023/05/29 07:09:54;;;;;;;7.22;2.12;;;;;;;20.47;47.32;100836.44;1648088;85;21261;-53
2023/05/29 07:13:02;;;;;;;4.58;1.70;;;;;;;20.49;47.19;100825.91;1654095;85;21230;-54
2023/05/29 07:16:08;;;;;;;3.90;1.95;;;;;;;20.53;47.13;100825.78;1649356;87;21235;-54
2023/05/29 07:19:13;;;;;;;5.08;2.00;;;;;;;20.63;47.14;100823.30;1657753;85;21415;-54
2023/05/29 07:22:20;;;;;;;7.27;1.80;;;;;;;20.76;47.17;100821.77;1675428;84;21342;-58
2023/05/29 07:25:26;;;;;;;6.05;2.10;;;;;;;20.85;47.09;100828.75;1677774;85;21225;-56
2023/05/29 07:28:34;;;;;;;4.87;2.12;;;;;;;20.93;46.95;100824.80;1653308;86;21219;-57
2023/05/29 07:31:40;;;;;;;4.58;1.92;;;;;;;20.97;46.81;100824.13;1673431;85;21248;-56
2023/05/29 07:34:46;;;;;;;11.45;3.37;;;;;;;20.98;46.64;100816.64;1657726;85;21259;-56
2023/05/29 07:37:53;;;;;;;6.15;1.95;;;;;;;21.02;46.59;100816.47;1667677;85;21587;-56
2023/05/29 07:41:01;;;;;;;11.55;2.55;;;;;;;21.11;46.57;100823.41;1659281;86;22297;-56
2023/05/29 07:44:11;;;;;;;8.05;2.02;;;;;;;21.22;46.52;100821.23;1641863;83;21228;-57
2023/05/29 07:47:17;;;;;;;7.65;2.45;;;;;;;21.25;46.42;100825.80;1647247;86;21305;-56
2023/05/29 07:50:24;;;;;;;8.00;2.50;;;;;;;21.37;46.44;100829.50;1675813;85;21256;-56
2023/05/29 07:53:33;;;;;;;5.62;2.52;;;;;;;21.48;46.35;100831.49;1651383;86;21245;-57
2023/05/29 07:56:40;;;;;;;5.15;2.52;;;;;;;21.54;46.19;100833.33;1640972;87;21243;-57
2023/05/29 07:59:50;;;;;;;6.95;2.45;;;;;;;21.56;46.03;100829.77;1648137;87;21240;-56
2023/05/29 08:02:58;;;;;;;4.20;2.12;;;;;;;21.60;45.90;100836.56;1661649;84;21254;-53
2023/05/29 08:06:07;;;;;;;6.80;2.20;;;;;;;21.62;45.86;100834.39;1610859;88;21303;-54
2023/05/29 08:09:14;;;;;;;5.58;2.50;;;;;;;21.71;45.90;100821.81;1639981;87;21561;-53
2023/05/29 08:12:20;;;;;;;9.18;2.72;;;;;;;21.83;45.91;100823.28;1645540;84;21371;-54
2023/05/29 08:15:27;;;;;;;7.15;2.42;;;;;;;21.93;45.82;100822.99;1648008;85;21240;-54
2023/05/29 08:18:35;;;;;;;7.58;2.08;;;;;;;21.99;45.72;100818.41;1640659;86;21268;-53
2023/05/29 08:22:02;;;;;;;10.82;2.33;;;;;;;22.01;45.58;100819.00;1662170;85;21386;-57
2023/05/29 08:25:17;;;;;;;6.95;2.62;;;;;;;22.08;45.59;100815.57;1644874;86;21304;-54
2023/05/29 08:28:26;;;;;;;4.50;2.25;;;;;;;22.20;45.56;100821.47;1643256;86;22064;-54
2023/05/29 08:31:33;;;;;;;7.37;2.37;;;;;;;22.31;45.50;100814.75;1605459;87;21324;-55
2023/05/29 08:34:45;;;;;;;8.68;7.78;;;;;;;22.37;45.42;100808.20;1642279;85;21310;-54
2023/05/29 08:37:52;;;;;;;7.90;3.00;;;;;;;22.40;45.31;100818.88;1641856;85;21298;-57
2023/05/29 08:40:59;;;;;;;15.28;3.45;;;;;;;22.43;45.26;100804.43;1637588;86;21267;-57
2023/05/29 08:44:12;;;;;;;10.58;2.87;;;;;;;22.53;45.26;100800.53;1614444;88;21633;-56
2023/05/29 08:47:20;;;;;;;6.47;2.67;;;;;;;22.65;45.34;100799.42;1595709;86;21627;-56
2023/05/29 08:50:27;;;;;;;6.28;2.60;;;;;;;22.77;45.27;100798.02;1621055;87;21258;-57
2023/05/29 08:53:36;;;;;;;7.70;2.92;;;;;;;22.83;45.16;100791.45;1624696;87;21227;-56
2023/05/29 08:56:42;;;;;;;6.12;2.95;;;;;;;22.92;45.12;100786.63;1623428;87;21203;-56
2023/05/29 08:59:51;;;;;;;6.80;3.52;;;;;;;22.95;44.98;100787.53;1639666;86;21764;-55
2023/05/29 09:02:59;;;;;;;6.42;2.87;;;;;;;22.95;44.78;100779.70;1639942;86;21313;-58
2023/05/29 09:06:08;;;;;;;5.25;2.95;;;;;;;22.96;44.74;100778.05;1639524;87;21302;-57
2023/05/29 09:09:15;;;;;;;4.95;2.90;;;;;;;23.03;44.75;100783.50;1640873;86;21346;-54
2023/05/29 09:12:24;;;;;;;6.35;2.98;;;;;;;23.11;44.69;100773.33;1637999;87;21863;-55
2023/05/29 09:15:32;;;;;;;5.03;2.67;;;;;;;23.13;44.61;100773.41;1639153;86;21564;-54
2023/05/29 09:18:46;;;;;;;8.18;3.15;;;;;;;23.25;44.65;100767.75;1639680;87;21383;-55
2023/05/29 09:21:55;;;;;;;6.87;2.70;;;;;;;23.41;44.69;100774.83;1639295;87;21241;-57
2023/05/29 09:25:03;;;;;;;7.50;3.25;;;;;;;23.55;44.62;100768.38;1646248;85;21414;-55
2023/05/29 09:28:13;;;;;;;8.50;3.10;;;;;;;23.61;44.38;100772.95;1640181;86;21244;-56
2023/05/29 09:31:24;;;;;;;6.78;3.80;;;;;;;23.59;44.26;100768.19;1655834;85;21425;-57
2023/05/29 09:34:34;;;;;;;7.28;2.92;;;;;;;23.67;44.30;100763.58;1654663;85;21251;-55
2023/05/29 09:37:38;;;;;;;8.00;2.70;;;;;;;23.80;44.29;100764.62;1654360;86;21248;-56
2023/05/29 09:40:47;;;;;;;7.85;3.20;;;;;;;23.94;44.17;100765.16;1655775;85;21273;-56
2023/05/29 09:43:54;;;;;;;6.65;2.60;;;;;;;24.07;44.20;100759.27;1641911;84;21255;-58
2023/05/29 09:47:03;;;;;;;6.78;3.00;;;;;;;24.28;44.26;100762.67;1659028;84;21763;-58
2023/05/29 09:50:10;;;;;;;5.47;3.27;;;;;;;24.50;44.18;100750.97;1644160;85;21259;-58
2023/05/29 09:53:30;;;;;;;5.53;2.80;;;;;;;24.57;43.77;100756.70;1632733;86;21851;-57
2023/05/29 09:56:53;;;;;;;6.80;2.83;;;;;;;24.42;43.34;100748.64;1654425;84;21216;-56
2023/05/29 10:00:01;;;;;;;6.50;2.87;;;;;;;24.42;43.46;100748.06;1656446;84;21246;-56
2023/05/29 10:03:08;;;;;;;8.58;3.10;;;;;;;24.56;43.58;100740.98;1641148;86;21239;-55
2023/05/29 10:06:24;;;;;;;5.28;2.92;;;;;;;24.83;43.64;100748.95;1649209;85;21254;-55
2023/05/29 10:09:33;;;;;;;7.28;3.00;;;;;;;24.94;43.29;100735.37;1649694;85;21254;-57
2023/05/29 10:12:50;;;;;;;4.80;2.75;;;;;;;25.17;43.32;100736.20;1655560;85;21770;-57
2023/05/29 10:15:59;;;;;;;4.75;2.70;;;;;;;25.49;43.33;100741.36;1650741;85;21384;-55
2023/05/29 10:19:13;;;;;;;5.05;2.62;;;;;;;25.80;43.16;100735.77;1652914;84;21325;-57
2023/05/29 10:22:33;;;;;;;7.20;2.87;;;;;;;26.02;42.86;100732.34;1640315;84;21640;-53
2023/05/29 10:25:41;;;;;;;11.88;3.10;;;;;;;26.24;42.69;100723.25;1645589;85;21220;-54
2023/05/29 10:28:55;;;;;;;7.62;2.87;;;;;;;26.41;42.44;100718.88;1632045;86;21227;-58
2023/05/29 10:32:15;;;;;;;8.27;2.80;;;;;;;26.35;41.96;100709.56;1637058;85;22056;-57
2023/05/29 10:35:55;;;;;;;8.68;3.30;;;;;;;26.34;41.82;100715.45;1710696;82;21336;-57
2023/05/29 10:39:04;;;;;;;9.60;3.08;;;;;;;26.09;41.21;100709.67;1759070;80;21208;-61
2023/05/29 10:42:15;;;;;;;5.92;2.92;;;;;;;25.79;41.03;100711.66;1734292;81;21188;-59
2023/05/29 10:45:42;;;;;;;12.53;3.30;;;;;;;25.76;41.05;100702.92;1743916;81;21262;-59
2023/05/29 10:48:49;;;;;;;4.40;3.10;;;;;;;25.93;41.22;100703.62;1756144;80;21262;-58
2023/05/29 10:51:59;;;;;;;8.45;3.22;;;;;;;26.11;41.05;100702.69;1750193;81;21187;-59
2023/05/29 10:55:06;;;;;;;7.97;3.10;;;;;;;26.04;40.62;100702.61;1717205;82;21267;-59
2023/05/29 10:58:18;;;;;;;8.25;3.02;;;;;;;26.06;40.63;100705.45;1720805;82;21204;-59
2023/05/29 11:01:25;;;;;;;7.30;3.03;;;;;;;26.19;40.56;100695.72;1716658;82;21208;-58
2023/05/29 11:04:34;;;;;;;4.85;2.90;;;;;;;26.22;40.50;100690.42;1738662;80;21196;-57
2023/05/29 11:07:47;;;;;;;6.85;3.10;;;;;;;26.44;40.51;100686.05;1749982;81;21231;-57
2023/05/29 11:11:01;;;;;;;6.03;3.08;;;;;;;26.51;40.23;100693.68;1749362;81;21235;-57
2023/05/29 11:14:13;;;;;;;6.17;3.50;;;;;;;26.37;39.97;100688.23;1743401;81;21378;-57
2023/05/29 11:17:46;;;;;;;8.75;3.50;;;;;;;26.27;39.80;100686.79;1713068;83;21742;-57
2023/05/29 11:21:05;;;;;;;6.95;2.77;;;;;;;26.40;39.84;100688.55;1720824;81;21200;-57
2023/05/29 11:24:11;;;;;;;6.85;3.45;;;;;;;26.70;39.84;100689.31;1750366;80;21271;-57
2023/05/29 11:27:18;;;;;;;7.03;3.05;;;;;;;26.88;39.56;100675.34;1754657;80;21230;-57
2023/05/29 11:30:24;;;;;;;9.63;3.80;;;;;;;26.85;39.24;100683.74;1704396;82;21210;-57
2023/05/29 11:33:36;;;;;;;8.48;2.98;;;;;;;26.69;38.86;100687.60;1752386;80;21227;-58
2023/05/29 11:36:42;;;;;;;5.65;3.12;;;;;;;26.65;38.98;100680.86;1705643;82;21307;-56
2023/05/29 11:39:48;;;;;;;6.53;3.30;;;;;;;26.77;39.05;100674.44;1733760;81;21752;-57
2023/05/29 11:42:57;;;;;;;6.30;3.42;;;;;;;26.91;39.00;100674.20;1750107;80;21236;-57
2023/05/29 11:46:05;;;;;;;9.73;3.50;;;;;;;27.04;38.93;100671.42;1739154;81;21255;-56
2023/05/29 11:49:10;;;;;;;6.20;3.12;;;;;;;26.95;38.50;100682.38;1703508;83;21216;-56
2023/05/29 11:52:22;;;;;;;8.70;3.40;;;;;;;26.85;38.20;100673.05;1711451;83;21239;-58
2023/05/29 11:55:30;;;;;;;6.17;3.50;;;;;;;26.81;38.10;100667.16;1689430;83;21259;-57
2023/05/29 11:58:38;;;;;;;5.10;3.47;;;;;;;26.92;38.04;100663.81;1710390;83;21200;-56
2023/05/29 12:01:43;;;;;;;6.30;2.85;;;;;;;26.95;37.96;100659.05;1682103;84;21243;-57
2023/05/29 12:04:53;;;;;;;5.65;2.80;;;;;;;26.87;37.60;100659.58;1697148;83;21231;-56
2023/05/29 12:08:04;;;;;;;5.35;2.92;;;;;;;26.87;37.60;100661.84;1703040;83;22018;-56
2023/05/29 12:11:12;;;;;;;7.90;3.00;;;;;;;27.04;37.73;100655.42;1703675;82;21291;-56
2023/05/29 12:14:18;;;;;;;5.90;3.00;;;;;;;27.27;37.82;100650.73;1758333;80;21344;-57
2023/05/29 12:17:30;;;;;;;5.97;2.77;;;;;;;27.44;37.72;100651.86;1740297;81;21247;-56
2023/05/29 12:20:35;;;;;;;3.67;2.62;;;;;;;27.54;37.54;100648.48;1741305;81;21919;-57
2023/05/29 12:23:41;;;;;;;6.55;2.65;;;;;;;27.54;37.34;100641.45;1752911;81;21779;-57
2023/05/29 12:26:50;;;;;;;6.85;3.42;;;;;;;27.64;37.22;100648.50;1709268;81;21374;-57
2023/05/29 12:29:56;;;;;;;5.90;2.70;;;;;;;27.75;37.10;100651.59;1733660;82;21231;-56
2023/05/29 12:33:06;;;;;;;6.10;3.25;;;;;;;27.61;36.74;100642.03;1723244;81;21374;-57
2023/05/29 12:36:15;;;;;;;6.62;2.65;;;;;;;27.37;36.50;100647.92;1741298;79;22276;-56
2023/05/29 12:39:24;;;;;;;8.88;3.25;;;;;;;27.16;36.41;100653.19;1752374;80;21259;-59
2023/05/29 12:42:31;;;;;;;7.65;2.83;;;;;;;27.04;36.38;100648.39;1740922;81;21976;-56
2023/05/29 12:45:40;;;;;;;6.62;2.72;;;;;;;26.88;36.21;100649.47;1712732;83;21830;-56
2023/05/29 12:48:46;;;;;;;3.87;2.47;;;;;;;26.81;36.24;100636.25;1746768;80;21196;-56
2023/05/29 12:51:52;;;;;;;7.78;3.10;;;;;;;26.95;36.35;100640.77;1695372;83;21182;-58
2023/05/29 12:55:00;;;;;;;7.50;2.92;;;;;;;27.07;36.35;100644.16;1713016;82;21227;-51
2023/05/29 12:58:08;;;;;;;10.48;3.08;;;;;;;27.18;36.31;100642.52;1709868;82;21215;-56
2023/05/29 13:01:22;;;;;;;6.17;2.75;;;;;;;27.25;36.23;100633.81;1753364;81;21777;-56
2023/05/29 13:04:29;;;;;;;5.47;2.90;;;;;;;27.29;36.10;100637.80;1698874;83;21211;-56
2023/05/29 13:07:37;;;;;;;5.15;2.87;;;;;;;27.30;36.06;100633.30;1700212;82;21215;-56
2023/05/29 13:10:45;;;;;;;6.45;2.90;;;;;;;27.36;35.93;100623.74;1702652;82;21273;-56
2023/05/29 13:13:51;;;;;;;4.67;2.90;;;;;;;27.36;35.83;100627.11;1744415;81;21188;-57
2023/05/29 13:17:01;;;;;;;6.87;3.12;;;;;;;27.28;35.79;100619.22;1750872;81;21839;-59
2023/05/29 13:20:08;;;;;;;6.00;3.02;;;;;;;27.26;35.72;100618.62;1746027;81;21706;-57
2023/05/29 13:23:16;;;;;;;8.00;3.55;;;;;;;27.22;35.72;100616.95;1719044;82;21472;-57
2023/05/29 13:26:29;;;;;;;5.97;3.30;;;;;;;27.07;35.57;100621.68;1732599;82;21328;-57
2023/05/29 13:29:44;;;;;;;8.00;3.83;;;;;;;26.91;35.52;100614.36;1853114;76;22219;-52
2023/05/29 13:32:53;;;;;;;5.53;2.83;;;;;;;26.73;35.55;100610.09;1801717;79;21349;-52
2023/05/29 13:35:59;;;;;;;5.90;2.77;;;;;;;26.61;35.52;100610.84;1773078;79;22005;-52
2023/05/29 13:39:06;;;;;;;7.95;3.05;;;;;;;26.55;35.52;100606.34;1795925;79;21370;-52
2023/05/29 13:42:11;;;;;;;6.37;3.05;;;;;;;26.53;35.55;100604.36;1738123;81;21598;-52
2023/05/29 13:45:19;;;;;;;5.00;2.90;;;;;;;26.62;35.73;100603.27;1748178;81;21550;-54
2023/05/29 13:48:27;;;;;;;6.50;2.75;;;;;;;26.68;35.71;100601.64;1765581;81;21205;-53
2023/05/29 13:51:36;;;;;;;6.00;2.80;;;;;;;26.65;35.57;100592.92;1766993;79;21233;-53
2023/05/29 13:54:43;;;;;;;8.38;3.22;;;;;;;26.69;35.65;100592.67;1759764;80;21232;-54
2023/05/29 13:57:50;;;;;;;8.80;3.25;;;;;;;26.70;35.71;100589.58;1767383;80;21216;-57
2023/05/29 14:00:58;;;;;;;7.83;2.75;;;;;;;26.72;35.59;100588.72;1770232;79;21446;-56
2023/05/29 14:04:08;;;;;;;6.85;2.75;;;;;;;26.74;35.63;100591.25;1738882;80;21224;-54
2023/05/29 14:07:17;;;;;;;6.83;2.80;;;;;;;26.79;35.70;100585.66;1745208;81;21955;-53
2023/05/29 14:10:24;;;;;;;7.72;2.75;;;;;;;26.78;35.69;100592.41;1720131;81;21241;-51
2023/05/29 14:13:31;;;;;;;7.80;3.52;;;;;;;26.68;35.59;100593.77;1776466;80;21388;-53
2023/05/29 14:16:38;;;;;;;11.12;4.12;;;;;;;26.58;35.50;100585.27;1772207;80;21807;-55
2023/05/29 14:19:47;;;;;;;10.45;2.83;;;;;;;26.41;35.36;100578.48;1762453;79;21267;-52
2023/05/29 14:22:56;;;;;;;11.48;2.95;;;;;;;26.27;35.41;100577.30;1788247;79;21332;-53
2023/05/29 14:26:02;;;;;;;6.33;2.80;;;;;;;26.15;35.44;100569.10;1795166;78;21206;-52
2023/05/29 14:29:08;;;;;;;10.95;3.25;;;;;;;26.21;35.58;100567.17;1773905;79;21761;-57
2023/05/29 14:32:14;;;;;;;6.30;2.70;;;;;;;26.28;35.57;100568.61;1764812;80;21197;-56
2023/05/29 14:35:22;;;;;;;4.72;2.45;;;;;;;26.33;35.59;100567.23;1745618;80;21209;-56